»·PEaware :: N6005F KEWR-KJFK

N6005F :: KEWR-KJFK

FLIGHT INFORMATION

Flight Status: Arrived
Operator: Privately registered:
United States
More flights under this callsign
Pilot: Anonymous 18904 (18904)
Aircraft: CANADAIR CL-600 CHALLENGER
(CL60)
More flights by this aircraft type
Origin: KEWR Newark Intl
United States
Destination: KJFK Kennedy Intl
United States
More flights between these airports :: More routes between these airports
Route: BREZY V39 CMK V419 JUDDS NELIE MAD V1 DPK
File this flight plan on PilotEdge
Remarks: RMK / HONK )
Altitude:
(Current/Filed)
11,000ft
Speed:
(Current/Filed)
309kts
Departed: 03-Dec-22 08:01 AM
Arrived: 03-Dec-22 08:50 AM
Distance/Time
Traveled:
17nm/0:49
Distance/Time
To Go:
Arrived

Flight Plot

Page will automatically refresh every two minutes.

Flight plan parsing failed; only flown route is shown


Map Options




Map Legend


Flown Route
Filed Route
Departure Airport
Arrival Airport
Navaid (VOR, NDB)
Fix

Horizontal Profiles

Position Reports

Time Latitude Longitude Heading Altitude Ground
Speed
03-Dec-22 07:48 40.706026 -74.169674 1 26ft 0kts
03-Dec-22 07:49 40.706026 -74.169674 1 26ft 0kts
03-Dec-22 07:50 40.706026 -74.169674 1 26ft 0kts
03-Dec-22 07:51 40.706026 -74.169674 1 26ft 0kts
03-Dec-22 07:52 40.706026 -74.169674 1 26ft 0kts
03-Dec-22 07:53 40.706026 -74.169674 1 26ft 0kts
03-Dec-22 07:54 40.706026 -74.169674 1 26ft 0kts
03-Dec-22 07:55 40.706026 -74.169674 1 26ft 0kts
03-Dec-22 07:56 40.705678 -74.169439 157 26ft 3kts
03-Dec-22 07:57 40.704567 -74.168131 162 26ft 8kts
03-Dec-22 07:58 40.703299 -74.171704 276 26ft 20kts
03-Dec-22 07:59 40.703724 -74.179316 270 26ft 14kts
03-Dec-22 08:00 40.701067 -74.155809 96 691ft 177kts
03-Dec-22 08:01 40.741944 -74.093103 30 2912ft 272kts
03-Dec-22 08:02 40.790741 -74.134529 277 4770ft 259kts
03-Dec-22 08:03 40.823327 -74.211323 348 7758ft 287kts
03-Dec-22 08:04 40.904956 -74.193141 4 10770ft 318kts
03-Dec-22 08:05 41.002208 -74.171024 5 11001ft 358kts
03-Dec-22 08:06 41.100526 -74.148349 5 11004ft 358kts
03-Dec-22 08:07 41.173560 -74.065011 71 11016ft 380kts
03-Dec-22 08:08 41.203957 -73.928672 72 11005ft 380kts
03-Dec-22 08:09 41.233850 -73.792678 72 11004ft 380kts
03-Dec-22 08:10 41.263696 -73.656255 72 11004ft 380kts
03-Dec-22 08:11 41.316147 -73.536679 43 11036ft 374kts
03-Dec-22 08:12 41.391113 -73.434411 44 11113ft 401kts
03-Dec-22 08:13 41.470243 -73.327531 45 11156ft 402kts
03-Dec-22 08:14 41.550294 -73.220416 44 11158ft 402kts
03-Dec-22 08:15 41.631118 -73.113043 44 13557ft 420kts
03-Dec-22 08:16 41.712356 -72.999121 56 15164ft 409kts
03-Dec-22 08:17 41.706157 -72.870379 136 15206ft 343kts
03-Dec-22 08:18 41.630250 -72.804334 166 15196ft 320kts
03-Dec-22 08:19 41.545972 -72.769148 172 15195ft 315kts
03-Dec-22 08:20 41.460609 -72.740113 173 15195ft 315kts
03-Dec-22 08:21 41.374907 -72.712046 173 14308ft 293kts
03-Dec-22 08:22 41.302054 -72.687807 166 13359ft 266kts
03-Dec-22 08:23 41.243012 -72.620922 146 13149ft 281kts
03-Dec-22 08:24 41.185745 -72.549651 145 13149ft 281kts
03-Dec-22 08:25 41.126716 -72.483007 171 13133ft 261kts
03-Dec-22 08:26 41.085829 -72.534988 282 13155ft 271kts
03-Dec-22 08:27 41.142366 -72.602585 319 13150ft 285kts
03-Dec-22 08:28 41.211991 -72.652917 328 13147ft 288kts
03-Dec-22 08:29 41.269732 -72.715231 274 13115ft 278kts
03-Dec-22 08:30 41.254738 -72.806449 231 12212ft 253kts
03-Dec-22 08:31 41.203784 -72.870109 221 11205ft 248kts
03-Dec-22 08:32 41.153354 -72.924017 223 10103ft 231kts
03-Dec-22 08:33 41.104363 -72.975905 221 9001ft 221kts
03-Dec-22 08:34 41.056162 -73.026678 221 7991ft 219kts
03-Dec-22 08:35 41.008440 -73.076862 221 6974ft 215kts
03-Dec-22 08:36 40.961887 -73.125725 220 6045ft 210kts
03-Dec-22 08:37 40.915258 -73.174562 220 6003ft 211kts
03-Dec-22 08:38 40.878114 -73.234863 237 5520ft 209kts
03-Dec-22 08:39 40.860761 -73.307314 257 5006ft 208kts
03-Dec-22 08:40 40.848761 -73.383205 257 4531ft 209kts
03-Dec-22 08:41 40.837376 -73.456795 253 3547ft 193kts
03-Dec-22 08:43 40.818786 -73.521116 247 2747ft 189kts
03-Dec-22 08:44 40.791133 -73.577627 224 2010ft 184kts
03-Dec-22 08:45 40.754857 -73.624509 224 2018ft 184kts
03-Dec-22 08:46 40.725912 -73.678369 238 1719ft 166kts
03-Dec-22 08:47 40.703958 -73.720884 216 1402ft 126kts
03-Dec-22 08:48 40.673924 -73.744625 214 738ft 124kts
03-Dec-22 08:49 40.644529 -73.767972 212 120ft 122kts
03-Dec-22 08:50 40.630486 -73.780031 300 20ft 4kts
03-Dec-22 08:51 40.633263 -73.780402 296 20ft 12kts
03-Dec-22 08:52 40.635321 -73.783092 299 20ft 14kts
03-Dec-22 08:53 40.637776 -73.788472 301 20ft 22kts
03-Dec-22 08:54 40.640642 -73.794812 300 20ft 18kts
03-Dec-22 08:55 40.643864 -73.800764 299 20ft 22kts
03-Dec-22 08:56 40.647029 -73.807629 300 20ft 20kts
03-Dec-22 08:57 40.649486 -73.811911 44 20ft 7kts
03-Dec-22 08:58 40.648891 -73.809976 23 20ft 0kts
03-Dec-22 08:59 40.648891 -73.809976 23 20ft 0kts
03-Dec-22 09:00 40.648891 -73.809976 23 20ft 0kts
03-Dec-22 09:01 40.648891 -73.809976 23 20ft 0kts
03-Dec-22 09:02 40.648891 -73.809976 23 20ft 0kts
03-Dec-22 09:03 40.648891 -73.809976 23 20ft 0kts
03-Dec-22 09:04 40.648891 -73.809976 23 20ft 0kts

Navigation Log

Ident Type
Flight plan parsing failed, navigation log unavailable